createdAt,value
2018-06-02T00:01:59.178Z,7.80
2018-06-02T00:04:27.453Z,12.17
2018-06-02T00:06:55.734Z,12.17
2018-06-02T00:09:24.006Z,7.73
2018-06-02T00:11:52.281Z,10.20
2018-06-02T00:14:20.550Z,7.17
2018-06-02T00:16:49.296Z,8.30
2018-06-02T00:19:19.049Z,8.00
2018-06-02T00:21:47.313Z,8.73
2018-06-02T00:24:15.598Z,9.73
2018-06-02T00:26:43.867Z,9.47
2018-06-02T00:29:12.150Z,8.10
2018-06-02T00:31:40.422Z,7.67
2018-06-02T00:34:09.023Z,10.27
2018-06-02T00:36:37.290Z,8.10
2018-06-02T00:39:05.572Z,7.70
2018-06-02T00:41:33.838Z,8.47
2018-06-02T00:44:02.118Z,10.40
2018-06-02T00:46:30.390Z,8.87
2018-06-02T00:48:58.678Z,12.23
2018-06-02T00:51:26.954Z,9.70
2018-06-02T00:53:55.249Z,7.73
2018-06-02T00:56:23.523Z,11.43
2018-06-02T00:58:51.793Z,8.47
2018-06-02T01:01:20.112Z,9.10
2018-06-02T01:03:48.392Z,9.77
2018-06-02T01:06:16.677Z,10.17
2018-06-02T01:08:44.950Z,9.57
2018-06-02T01:11:13.222Z,7.70
2018-06-02T01:13:41.494Z,9.00
2018-06-02T01:16:09.774Z,10.40
2018-06-02T01:18:38.050Z,11.33
2018-06-02T01:21:06.325Z,8.47
2018-06-02T01:23:34.593Z,9.60
2018-06-02T01:26:02.866Z,5.87
2018-06-02T01:28:31.133Z,9.90
2018-06-02T01:30:59.413Z,8.00
2018-06-02T01:33:27.682Z,8.30
2018-06-02T01:35:55.954Z,9.50
2018-06-02T01:38:24.230Z,11.60
2018-06-02T01:40:52.517Z,10.37
2018-06-02T01:43:20.793Z,12.03
2018-06-02T01:45:49.721Z,10.13
2018-06-02T01:48:18.002Z,11.23
2018-06-02T01:50:46.287Z,11.87
2018-06-02T01:53:14.565Z,11.97
2018-06-02T01:55:42.858Z,12.33
2018-06-02T01:58:11.130Z,11.20
2018-06-02T02:00:39.402Z,12.50
2018-06-02T02:03:07.681Z,11.50
2018-06-02T02:05:35.964Z,12.97
2018-06-02T02:08:04.286Z,15.80
2018-06-02T02:10:32.566Z,14.30
2018-06-02T02:13:00.853Z,11.53
2018-06-02T02:15:29.129Z,12.33
2018-06-02T02:17:57.418Z,12.77
2018-06-02T02:20:26.466Z,12.00
2018-06-02T02:22:54.748Z,13.87
2018-06-02T02:25:23.019Z,15.10
2018-06-02T02:27:51.305Z,12.03
2018-06-02T02:30:19.578Z,10.80
2018-06-02T02:32:47.862Z,11.83
2018-06-02T02:35:16.139Z,17.43
2018-06-02T02:37:44.426Z,13.43
2018-06-02T02:40:12.699Z,10.83
2018-06-02T02:42:41.012Z,13.30
2018-06-02T02:45:09.290Z,15.97
2018-06-02T02:47:37.566Z,18.90
2018-06-02T02:50:05.857Z,14.43
2018-06-02T02:52:34.117Z,14.70
2018-06-02T02:55:02.406Z,13.93
2018-06-02T02:57:30.697Z,15.83
2018-06-02T02:59:58.990Z,18.40
2018-06-02T03:02:27.273Z,17.10
2018-06-02T03:04:55.561Z,24.40
2018-06-02T03:07:23.845Z,20.33
2018-06-02T03:09:52.134Z,20.50
2018-06-02T03:12:20.414Z,18.90
2018-06-02T03:14:48.707Z,18.97
2018-06-02T03:17:16.991Z,20.37
2018-06-02T03:19:45.274Z,21.77
2018-06-02T03:22:13.558Z,20.13
2018-06-02T03:24:41.842Z,24.40
2018-06-02T03:27:10.124Z,22.70
2018-06-02T03:29:38.414Z,22.63
2018-06-02T03:32:06.690Z,22.80
2018-06-02T03:34:34.977Z,19.20
2018-06-02T03:37:03.257Z,26.60
2018-06-02T03:39:32.406Z,22.27
2018-06-02T03:42:00.682Z,23.07
2018-06-02T03:44:28.974Z,25.27
2018-06-02T03:46:57.270Z,26.73
2018-06-02T03:49:25.566Z,24.20
2018-06-02T03:51:53.847Z,22.37
2018-06-02T03:54:22.133Z,24.63
2018-06-02T03:56:50.424Z,20.63
2018-06-02T03:59:18.714Z,28.30
2018-06-02T04:01:46.991Z,26.30
2018-06-02T04:04:16.142Z,30.87
2018-06-02T04:06:44.434Z,22.80
2018-06-02T04:09:12.709Z,26.93
2018-06-02T04:11:41.001Z,27.17
2018-06-02T04:14:09.282Z,25.93
2018-06-02T04:16:37.574Z,25.57
2018-06-02T04:19:05.849Z,32.23
2018-06-02T04:21:34.856Z,26.43
2018-06-02T04:24:03.108Z,35.57
2018-06-02T04:26:31.394Z,27.77
2018-06-02T04:28:59.687Z,25.97
2018-06-02T04:31:27.982Z,28.67
2018-06-02T04:33:56.254Z,30.70
2018-06-02T04:36:24.545Z,28.37
2018-06-02T04:38:52.827Z,33.63
2018-06-02T04:41:21.115Z,28.57
2018-06-02T04:43:49.402Z,27.30
2018-06-02T04:46:17.688Z,34.93
2018-06-02T04:48:46.062Z,37.80
2018-06-02T04:51:14.349Z,50.93
2018-06-02T04:53:42.638Z,36.47
2018-06-02T04:56:10.910Z,40.07
2018-06-02T04:58:39.718Z,35.30
2018-06-02T05:01:07.994Z,40.23
2018-06-02T05:03:36.282Z,43.53
2018-06-02T05:06:04.562Z,40.07
2018-06-02T05:08:32.850Z,38.73
2018-06-02T05:11:01.142Z,37.03
2018-06-02T05:13:29.434Z,33.67
2018-06-02T05:15:58.423Z,36.43
2018-06-02T05:18:26.737Z,34.77
2018-06-02T05:20:55.010Z,36.60
2018-06-02T05:23:23.296Z,32.53
2018-06-02T05:25:51.573Z,29.70
2018-06-02T05:28:19.866Z,33.77
2018-06-02T05:30:48.149Z,34.67
2018-06-02T05:33:16.451Z,30.63
2018-06-02T05:35:44.730Z,37.60
2018-06-02T05:38:13.018Z,28.43
2018-06-02T05:40:41.317Z,29.27
2018-06-02T05:43:09.596Z,29.53
2018-06-02T05:45:37.881Z,25.97
2018-06-02T05:48:06.162Z,26.60
2018-06-02T05:50:34.449Z,27.87
2018-06-02T05:53:02.730Z,24.00
2018-06-02T05:55:31.043Z,28.70
2018-06-02T05:57:59.326Z,27.90
2018-06-02T06:00:27.622Z,22.73
2018-06-02T06:02:55.899Z,29.27
2018-06-02T06:05:24.186Z,24.40
2018-06-02T06:07:52.470Z,24.47
2018-06-02T06:10:20.760Z,23.90
2018-06-02T06:12:49.050Z,27.27
2018-06-02T06:15:17.334Z,26.07
2018-06-02T06:17:45.613Z,25.40
2018-06-02T06:20:13.910Z,26.03
2018-06-02T06:22:42.190Z,25.53
2018-06-02T06:25:10.466Z,23.67
2018-06-02T06:27:38.755Z,23.90
2018-06-02T06:30:07.033Z,24.60
2018-06-02T06:32:35.325Z,22.53
2018-06-02T06:35:03.601Z,23.33
2018-06-02T06:37:31.890Z,25.03
2018-06-02T06:40:00.178Z,24.23
2018-06-02T06:42:28.461Z,22.67
2018-06-02T06:44:56.766Z,25.20
2018-06-02T06:47:25.058Z,24.97
2018-06-02T06:49:53.334Z,21.27
2018-06-02T06:52:21.618Z,25.57
2018-06-02T06:54:49.909Z,23.13
2018-06-02T06:57:18.197Z,21.57
2018-06-02T06:59:46.490Z,21.63
2018-06-02T07:02:14.802Z,24.40
2018-06-02T07:04:43.087Z,23.93
2018-06-02T07:07:11.377Z,23.90
2018-06-02T07:09:39.654Z,22.07
2018-06-02T07:12:07.938Z,26.50
2018-06-02T07:14:36.222Z,22.10
2018-06-02T07:17:04.506Z,21.20
2018-06-02T07:19:32.789Z,24.40
2018-06-02T07:22:01.069Z,21.63
2018-06-02T07:24:29.370Z,18.87
2018-06-02T07:26:57.649Z,18.93
2018-06-02T07:29:25.925Z,18.63
2018-06-02T07:31:54.212Z,18.87
2018-06-02T07:34:22.489Z,17.53
2018-06-02T07:36:50.789Z,18.23
2018-06-02T07:39:19.065Z,18.67
2018-06-02T07:41:47.342Z,21.30
2018-06-02T07:44:15.665Z,20.43
2018-06-02T07:46:44.025Z,18.80
2018-06-02T07:49:12.314Z,19.27
2018-06-02T07:51:40.599Z,20.20
2018-06-02T07:54:08.877Z,17.47
2018-06-02T07:56:37.157Z,18.07
2018-06-02T07:59:05.445Z,21.13
2018-06-02T08:01:33.737Z,17.77
2018-06-02T08:04:02.017Z,14.20
2018-06-02T08:06:30.298Z,15.53
2018-06-02T08:08:58.593Z,13.57
2018-06-02T08:11:26.873Z,14.70
2018-06-02T08:13:55.158Z,13.33
2018-06-02T08:16:23.445Z,13.07
2018-06-02T08:18:51.718Z,12.43
2018-06-02T08:21:19.998Z,9.67
2018-06-02T08:23:48.268Z,12.10
2018-06-02T08:26:16.549Z,12.10
2018-06-02T08:28:44.825Z,11.73
2018-06-02T08:31:13.096Z,12.27
2018-06-02T08:33:41.411Z,12.80
2018-06-02T08:36:09.670Z,18.97
2018-06-02T08:38:37.961Z,12.43
2018-06-02T08:41:06.233Z,10.43
2018-06-02T08:43:34.514Z,11.13
2018-06-02T08:46:02.793Z,9.27
2018-06-02T08:48:31.073Z,11.23
2018-06-02T08:50:59.355Z,10.90
2018-06-02T08:53:27.625Z,12.83
2018-06-02T08:55:55.927Z,12.20
2018-06-02T08:58:24.198Z,9.87
2018-06-02T09:00:52.486Z,11.63
2018-06-02T09:03:20.762Z,10.60
2018-06-02T09:05:49.030Z,14.97
2018-06-02T09:08:17.305Z,13.37
2018-06-02T09:10:45.587Z,13.27
2018-06-02T09:13:13.865Z,11.57
2018-06-02T09:15:42.145Z,16.23
2018-06-02T09:18:10.737Z,15.10
2018-06-02T09:20:39.018Z,15.83
2018-06-02T09:23:09.237Z,15.47
2018-06-02T09:25:37.518Z,15.87
2018-06-02T09:28:05.794Z,13.00
2018-06-02T09:30:34.090Z,13.80
2018-06-02T09:33:02.374Z,14.70
2018-06-02T09:35:30.642Z,13.50
2018-06-02T09:37:58.931Z,12.63
2018-06-02T09:40:27.205Z,12.33
2018-06-02T09:42:55.485Z,14.03
2018-06-02T09:45:23.749Z,11.83
2018-06-02T09:47:52.031Z,14.07
2018-06-02T09:50:20.345Z,13.23
2018-06-02T09:52:48.640Z,13.77
2018-06-02T09:55:16.915Z,15.90
2018-06-02T09:57:45.195Z,16.13
2018-06-02T10:00:13.478Z,15.23
2018-06-02T10:02:41.761Z,14.43
2018-06-02T10:05:10.037Z,14.07
2018-06-02T10:07:38.318Z,11.70
2018-06-02T10:10:06.603Z,13.17
2018-06-02T10:12:34.882Z,13.83
2018-06-02T10:15:03.153Z,13.53
2018-06-02T10:17:31.434Z,11.83
2018-06-02T10:19:59.705Z,12.70
2018-06-02T10:22:28.030Z,11.10
2018-06-02T10:24:56.306Z,11.70
2018-06-02T10:27:24.584Z,10.67
2018-06-02T10:29:52.861Z,12.07
2018-06-02T10:32:21.133Z,10.67
2018-06-02T10:34:49.417Z,10.33
2018-06-02T10:37:17.689Z,11.97
2018-06-02T10:42:43.646Z,10.37
2018-06-02T10:45:11.925Z,9.10
2018-06-02T10:47:40.193Z,8.97
2018-06-02T10:50:08.474Z,8.23
2018-06-02T10:52:36.822Z,7.67
2018-06-02T10:55:05.401Z,7.10
2018-06-02T10:57:33.846Z,8.33
2018-06-02T11:00:02.425Z,8.17
2018-06-02T11:02:30.701Z,7.73
2018-06-02T11:04:58.978Z,7.53
2018-06-02T11:07:27.252Z,7.07
2018-06-02T11:09:55.526Z,9.33
2018-06-02T11:12:23.798Z,7.47
2018-06-02T11:14:53.625Z,6.77
2018-06-02T11:17:22.340Z,6.90
2018-06-02T11:19:50.993Z,6.00
2018-06-02T11:22:19.473Z,7.47
2018-06-02T11:24:48.103Z,6.50
2018-06-02T11:27:16.656Z,8.87
2018-06-02T11:29:45.151Z,5.17
2018-06-02T11:32:13.784Z,6.70
2018-06-02T11:34:42.839Z,5.50
2018-06-02T11:37:11.420Z,4.87
2018-06-02T11:39:39.957Z,5.40
2018-06-02T11:42:08.632Z,7.80
2018-06-02T11:44:37.261Z,5.50
2018-06-02T11:47:05.930Z,7.13
2018-06-02T11:49:34.909Z,7.13
2018-06-02T11:52:03.453Z,7.87
2018-06-02T11:54:32.105Z,7.43
2018-06-02T11:57:00.644Z,5.40
2018-06-02T11:59:29.196Z,5.17
2018-06-02T12:01:57.816Z,7.23
2018-06-02T12:04:26.648Z,7.57
2018-06-02T12:06:55.443Z,6.20
2018-06-02T12:09:23.976Z,6.33
2018-06-02T12:11:52.512Z,6.53
2018-06-02T12:14:21.200Z,5.73
2018-06-02T12:16:49.707Z,5.53
2018-06-02T12:19:18.399Z,5.57
2018-06-02T12:21:46.922Z,10.13
2018-06-02T12:24:15.502Z,4.77
2018-06-02T12:26:44.105Z,4.90
2018-06-02T12:29:12.801Z,8.93
2018-06-02T12:31:41.394Z,6.30
2018-06-02T12:34:09.919Z,5.20
2018-06-02T12:36:39.320Z,4.43
2018-06-02T12:39:07.894Z,5.57
2018-06-02T12:41:36.489Z,4.70
2018-06-02T12:44:04.995Z,5.53
2018-06-02T12:46:33.658Z,6.07
2018-06-02T12:49:02.162Z,5.97
2018-06-02T12:51:30.677Z,4.37
2018-06-02T12:53:59.269Z,6.87
2018-06-02T12:56:27.758Z,7.50
2018-06-02T12:58:56.649Z,4.57
2018-06-02T13:01:24.905Z,4.47
2018-06-02T13:03:53.191Z,4.37
2018-06-02T13:06:21.906Z,3.10
2018-06-02T13:08:50.182Z,4.63
2018-06-02T13:11:18.449Z,2.93
2018-06-02T13:13:46.729Z,3.70
2018-06-02T13:16:15.002Z,4.53
2018-06-02T13:18:43.285Z,5.07
2018-06-02T13:21:11.598Z,4.23
2018-06-02T13:23:39.844Z,5.80
2018-06-02T13:26:08.110Z,2.70
2018-06-02T13:28:36.741Z,2.80
2018-06-02T13:31:05.010Z,4.47
2018-06-02T13:33:33.315Z,3.50
2018-06-02T13:36:01.605Z,4.03
2018-06-02T13:38:29.870Z,2.70
2018-06-02T13:40:58.151Z,2.87
2018-06-02T13:43:26.435Z,4.90
2018-06-02T13:45:54.710Z,2.70
2018-06-02T13:48:22.977Z,5.20
2018-06-02T13:50:51.266Z,3.27
2018-06-02T13:53:19.581Z,7.83
2018-06-02T13:55:47.863Z,2.80
2018-06-02T13:58:16.747Z,3.57
2018-06-02T14:00:45.302Z,6.37
2018-06-02T14:03:13.577Z,4.07
2018-06-02T14:05:41.846Z,3.70
2018-06-02T14:08:10.129Z,2.93
2018-06-02T14:10:38.398Z,6.47
2018-06-02T14:13:06.681Z,3.57
2018-06-02T14:15:34.946Z,9.43
2018-06-02T14:18:03.222Z,2.90
2018-06-02T14:20:31.495Z,3.00
2018-06-02T14:22:59.771Z,2.90
2018-06-02T14:25:28.087Z,4.77
2018-06-02T14:27:56.322Z,5.60
2018-06-02T14:30:24.587Z,2.57
2018-06-02T14:32:52.862Z,2.83
2018-06-02T14:35:21.139Z,3.03
2018-06-02T14:40:28.878Z,6.53
2018-06-02T14:42:57.151Z,4.70
2018-06-02T14:45:25.430Z,4.10
2018-06-02T14:47:53.712Z,3.63
2018-06-02T14:50:21.990Z,3.00
2018-06-02T14:52:50.258Z,2.57
2018-06-02T14:55:18.558Z,4.10
2018-06-02T14:57:46.806Z,4.57
2018-06-02T15:00:15.121Z,2.87
2018-06-02T15:02:43.389Z,2.83
2018-06-02T15:05:12.482Z,2.80
2018-06-02T15:07:40.758Z,4.53
2018-06-02T15:10:09.031Z,2.33
2018-06-02T15:12:37.305Z,2.80
2018-06-02T15:15:05.574Z,2.40
2018-06-02T15:17:33.849Z,4.03
2018-06-02T15:20:02.129Z,4.53
2018-06-02T15:22:30.403Z,5.30
2018-06-02T15:24:58.687Z,4.13
2018-06-02T15:27:26.954Z,5.03
2018-06-02T15:29:55.217Z,2.87
2018-06-02T15:32:23.503Z,4.30
2018-06-02T15:34:51.781Z,2.87
2018-06-02T15:37:20.319Z,3.87
2018-06-02T15:39:48.586Z,3.43
2018-06-02T15:42:16.849Z,3.53
2018-06-02T15:44:45.153Z,2.87
2018-06-02T15:47:13.426Z,2.43
2018-06-02T15:49:41.698Z,2.77
2018-06-02T15:52:09.969Z,4.73
2018-06-02T15:54:38.250Z,2.53
2018-06-02T15:57:06.526Z,4.13
2018-06-02T15:59:34.802Z,4.20
2018-06-02T16:02:03.070Z,3.10
2018-06-02T16:04:31.354Z,3.50
2018-06-02T16:06:59.631Z,4.27
2018-06-02T16:09:27.914Z,4.53
2018-06-02T16:11:56.186Z,4.00
2018-06-02T16:14:24.462Z,5.90
2018-06-02T16:16:52.738Z,3.73
2018-06-02T16:19:21.012Z,4.47
2018-06-02T16:21:49.293Z,3.43
2018-06-02T16:24:17.558Z,3.03
2018-06-02T16:26:45.850Z,3.70
2018-06-02T16:29:14.118Z,2.87
2018-06-02T16:31:42.394Z,1.87
2018-06-02T16:34:10.674Z,3.10
2018-06-02T16:36:38.945Z,3.27
2018-06-02T16:39:07.216Z,2.27
2018-06-02T16:41:35.502Z,3.30
2018-06-02T16:44:03.770Z,2.13
2018-06-02T16:46:32.050Z,2.10
2018-06-02T16:49:00.317Z,1.93
2018-06-02T16:51:28.602Z,1.90
2018-06-02T16:53:56.878Z,4.13
2018-06-02T16:56:25.150Z,1.77
2018-06-02T16:58:53.426Z,1.90
2018-06-02T17:01:21.694Z,2.17
2018-06-02T17:03:49.970Z,2.77
2018-06-02T17:06:18.249Z,2.70
2018-06-02T17:08:46.522Z,3.83
2018-06-02T17:11:14.794Z,3.70
2018-06-02T17:13:43.074Z,5.27
2018-06-02T17:16:11.350Z,3.77
2018-06-02T17:18:39.626Z,5.60
2018-06-02T17:21:07.897Z,4.23
2018-06-02T17:23:36.194Z,4.53
2018-06-02T17:26:04.463Z,3.53
2018-06-02T17:28:32.730Z,3.03
2018-06-02T17:31:01.038Z,3.67
2018-06-02T17:33:29.302Z,2.90
2018-06-02T17:35:57.638Z,3.00
2018-06-02T17:38:25.938Z,2.97
2018-06-02T17:40:54.225Z,2.73
2018-06-02T17:43:22.502Z,2.20
2018-06-02T17:45:50.786Z,3.13
2018-06-02T17:48:19.058Z,4.27
2018-06-02T17:50:47.329Z,4.80
2018-06-02T17:53:15.615Z,2.57
2018-06-02T17:55:43.893Z,5.40
2018-06-02T17:58:12.163Z,2.93
2018-06-02T18:00:40.447Z,2.77
2018-06-02T18:03:08.719Z,2.40
2018-06-02T18:05:36.989Z,3.20
2018-06-02T18:08:05.270Z,3.43
2018-06-02T18:10:33.546Z,3.10
2018-06-02T18:13:01.831Z,3.03
2018-06-02T18:15:30.101Z,3.13
2018-06-02T18:17:58.391Z,4.57
2018-06-02T18:20:26.661Z,3.40
2018-06-02T18:22:54.937Z,3.57
2018-06-02T18:25:23.209Z,5.60
2018-06-02T18:27:51.494Z,3.83
2018-06-02T18:30:19.758Z,4.87
2018-06-02T18:32:48.038Z,4.03
2018-06-02T18:35:16.313Z,3.40
2018-06-02T18:37:44.599Z,3.13
2018-06-02T18:40:12.870Z,4.13
2018-06-02T18:42:41.292Z,5.03
2018-06-02T18:45:09.573Z,4.97
2018-06-02T18:47:37.857Z,3.47
2018-06-02T18:50:06.126Z,4.73
2018-06-02T18:52:34.414Z,4.03
2018-06-02T18:55:02.694Z,3.20
2018-06-02T18:57:30.962Z,4.80
2018-06-02T19:00:00.495Z,3.33
2018-06-02T19:02:29.042Z,4.17
2018-06-02T19:04:57.343Z,4.13
2018-06-02T19:07:25.626Z,3.40
2018-06-02T19:09:53.901Z,4.23
2018-06-02T19:12:22.167Z,3.50
2018-06-02T19:14:50.445Z,3.70
2018-06-02T19:17:18.711Z,3.90
2018-06-02T19:19:47.000Z,5.60
2018-06-02T19:22:15.286Z,6.70
2018-06-02T19:24:43.547Z,5.23
2018-06-02T19:27:17.577Z,6.60
2018-06-02T19:29:46.017Z,4.60
2018-06-02T19:32:14.297Z,11.13
2018-06-02T19:34:42.594Z,3.40
2018-06-02T19:37:10.863Z,4.80
2018-06-02T19:39:39.138Z,4.07
2018-06-02T19:42:07.419Z,4.27
2018-06-02T19:44:35.737Z,5.07
2018-06-02T19:47:04.028Z,4.40
2018-06-02T19:49:32.302Z,4.97
2018-06-02T19:52:00.578Z,7.47
2018-06-02T19:54:28.860Z,4.90
2018-06-02T19:56:57.141Z,5.47
2018-06-02T19:59:25.414Z,5.43
2018-06-02T20:01:53.690Z,6.53
2018-06-02T20:04:21.964Z,5.20
2018-06-02T20:06:50.240Z,5.67
2018-06-02T20:09:18.511Z,7.40
2018-06-02T20:11:46.787Z,6.97
2018-06-02T20:14:15.054Z,6.90
2018-06-02T20:16:43.334Z,6.30
2018-06-02T20:19:11.602Z,6.17
2018-06-02T20:21:39.874Z,5.63
2018-06-02T20:24:08.150Z,7.73
2018-06-02T20:26:36.420Z,9.87
2018-06-02T20:29:05.030Z,7.20
2018-06-02T20:31:33.302Z,5.77
2018-06-02T20:34:01.586Z,5.43
2018-06-02T20:36:29.867Z,7.07
2018-06-02T20:38:58.830Z,5.63
2018-06-02T20:41:27.098Z,5.27
2018-06-02T20:43:55.377Z,8.77
2018-06-02T20:46:23.646Z,5.30
2018-06-02T20:48:51.926Z,8.13
2018-06-02T20:51:20.197Z,8.57
2018-06-02T20:53:48.478Z,7.93
2018-06-02T20:56:16.745Z,6.60
2018-06-02T20:58:45.022Z,9.20
2018-06-02T21:01:13.296Z,7.90
2018-06-02T21:03:41.572Z,6.47
2018-06-02T21:06:09.845Z,9.33
2018-06-02T21:08:38.394Z,6.93
2018-06-02T21:11:06.666Z,5.13
2018-06-02T21:13:34.934Z,4.07
2018-06-02T21:16:03.215Z,5.87
2018-06-02T21:18:31.491Z,4.13
2018-06-02T21:20:59.786Z,4.13
2018-06-02T21:23:28.058Z,4.40
2018-06-02T21:25:56.341Z,5.60
2018-06-02T21:28:24.615Z,3.70
2018-06-02T21:30:52.898Z,4.70
2018-06-02T21:33:21.175Z,4.57
2018-06-02T21:35:49.454Z,6.10
2018-06-02T21:38:17.727Z,4.90
2018-06-02T21:40:46.007Z,4.67
2018-06-02T21:43:14.283Z,6.87
2018-06-02T21:45:42.569Z,6.07
2018-06-02T21:48:10.837Z,7.93
2018-06-02T21:50:39.102Z,9.33
2018-06-02T21:53:07.378Z,4.50
2018-06-02T21:55:35.654Z,4.80
2018-06-02T21:58:03.930Z,8.20
2018-06-02T22:00:32.230Z,4.77
2018-06-02T22:03:00.510Z,5.10
2018-06-02T22:05:28.774Z,5.37
2018-06-02T22:07:57.054Z,5.43
2018-06-02T22:10:25.334Z,6.67
2018-06-02T22:12:53.616Z,6.47
2018-06-02T22:15:21.886Z,7.70
2018-06-02T22:17:50.197Z,7.90
2018-06-02T22:20:18.470Z,5.57
2018-06-02T22:22:46.746Z,6.30
2018-06-02T22:25:15.014Z,4.90
2018-06-02T22:27:43.307Z,4.23
2018-06-02T22:30:11.570Z,5.60
2018-06-02T22:32:39.847Z,6.30
2018-06-02T22:35:08.126Z,9.67
2018-06-02T22:37:36.398Z,6.20
2018-06-02T22:40:04.675Z,7.90
2018-06-02T22:42:32.942Z,6.73
2018-06-02T22:45:01.226Z,9.00
2018-06-02T22:47:29.506Z,5.33
2018-06-02T22:49:57.810Z,6.47
2018-06-02T22:52:26.070Z,4.77
2018-06-02T22:54:54.347Z,5.53
2018-06-02T22:57:22.613Z,7.73
2018-06-02T22:59:50.890Z,5.63
2018-06-02T23:02:19.157Z,7.93
2018-06-02T23:04:47.159Z,5.63
2018-06-02T23:07:15.154Z,7.33
2018-06-02T23:09:43.150Z,5.07
2018-06-02T23:12:11.142Z,7.87
2018-06-02T23:14:39.138Z,5.80
2018-06-02T23:17:07.137Z,6.57
2018-06-02T23:19:35.114Z,6.27
2018-06-02T23:22:03.115Z,9.27
2018-06-02T23:24:31.098Z,9.00
2018-06-02T23:26:59.128Z,5.00
2018-06-02T23:29:27.102Z,9.07
2018-06-02T23:31:55.097Z,7.33
2018-06-02T23:34:23.086Z,7.30
2018-06-02T23:36:51.102Z,13.17
2018-06-02T23:39:19.090Z,6.10
2018-06-02T23:41:47.097Z,7.53
2018-06-02T23:44:15.093Z,5.47
2018-06-02T23:46:43.086Z,6.27
2018-06-02T23:49:11.069Z,7.17
2018-06-02T23:51:39.078Z,6.10
2018-06-02T23:54:07.066Z,7.03
2018-06-02T23:56:35.073Z,5.47
2018-06-02T23:59:03.064Z,6.83
